createdAt,value
2024-01-05T00:03:00.746Z,43.69
2024-01-05T00:08:03.175Z,41.31
2024-01-05T00:13:04.820Z,43.45
2024-01-05T00:18:07.695Z,42.37
2024-01-05T00:23:09.480Z,42.58
2024-01-05T00:28:11.181Z,40.76
2024-01-05T00:33:13.035Z,40.75
2024-01-05T00:38:14.757Z,41.32
2024-01-05T00:43:16.430Z,43.17
2024-01-05T00:48:18.249Z,43.26
2024-01-05T00:53:20.094Z,41.32
2024-01-05T00:58:21.916Z,40.18
2024-01-05T01:03:23.657Z,40.82
2024-01-05T01:08:25.317Z,41.62
2024-01-05T01:13:26.934Z,42.22
2024-01-05T01:18:29.020Z,40.78
2024-01-05T01:23:30.873Z,40.50
2024-01-05T01:28:32.516Z,39.64
2024-01-05T01:33:34.356Z,39.54
2024-01-05T01:38:36.188Z,41.02
2024-01-05T01:43:37.890Z,40.40
2024-01-05T01:48:41.872Z,43.32
2024-01-05T01:53:45.090Z,41.70
2024-01-05T01:58:47.284Z,39.54
2024-01-05T02:03:49.455Z,39.77
2024-01-05T02:08:52.369Z,39.89
2024-01-05T02:13:54.179Z,38.69
2024-01-05T02:18:56.654Z,41.95
2024-01-05T02:23:58.558Z,39.76
2024-01-05T02:29:03.901Z,41.34
2024-01-05T02:34:05.589Z,43.26
2024-01-05T02:39:07.282Z,43.23
2024-01-05T02:44:08.980Z,43.68
2024-01-05T02:49:10.792Z,44.02
2024-01-05T02:54:12.542Z,42.47
2024-01-05T02:59:15.186Z,43.53
2024-01-05T03:04:16.980Z,44.56
2024-01-05T03:09:18.807Z,41.83
2024-01-05T03:14:20.535Z,41.48
2024-01-05T03:19:22.286Z,41.48
2024-01-05T03:24:24.211Z,39.89
2024-01-05T03:29:26.014Z,40.27
2024-01-05T03:34:29.528Z,40.52
2024-01-05T03:39:31.360Z,40.35
2024-01-05T03:44:33.056Z,40.06
2024-01-05T03:49:35.036Z,40.84
2024-01-05T03:54:36.865Z,40.11
2024-01-05T03:59:38.549Z,42.89
2024-01-05T04:04:41.096Z,40.93
2024-01-05T04:09:42.839Z,40.30
2024-01-05T04:14:46.370Z,41.43
2024-01-05T04:19:48.699Z,40.62
2024-01-05T04:24:50.556Z,41.01
2024-01-05T04:29:52.244Z,41.06
2024-01-05T04:34:53.926Z,42.80
2024-01-05T04:39:55.632Z,46.21
2024-01-05T04:44:57.401Z,47.52
2024-01-05T04:49:59.134Z,46.61
2024-01-05T04:55:00.802Z,44.24
2024-01-05T05:00:02.469Z,42.10
2024-01-05T05:05:04.380Z,43.04
2024-01-05T05:10:06.543Z,44.14
2024-01-05T05:15:09.413Z,42.23
2024-01-05T05:20:11.719Z,44.56
2024-01-05T05:25:13.435Z,43.95
2024-01-05T05:30:15.414Z,43.69
2024-01-05T05:35:17.254Z,42.68
2024-01-05T05:40:19.046Z,42.10
2024-01-05T05:45:20.746Z,43.57
2024-01-05T05:50:22.433Z,42.65
2024-01-05T05:55:24.056Z,42.83
2024-01-05T06:00:26.337Z,42.42
2024-01-05T06:05:28.101Z,42.75
2024-01-05T06:10:29.759Z,42.82
2024-01-05T06:15:31.543Z,41.21
2024-01-05T06:20:33.279Z,42.07
2024-01-05T06:25:34.908Z,44.44
2024-01-05T06:30:36.669Z,44.53
2024-01-05T06:35:38.362Z,42.31
2024-01-05T06:40:40.029Z,42.02
2024-01-05T06:45:41.729Z,42.96
2024-01-05T06:50:43.458Z,44.23
2024-01-05T06:55:45.193Z,44.28
2024-01-05T07:00:46.936Z,43.00
2024-01-05T07:05:49.836Z,43.98
2024-01-05T07:10:51.534Z,41.63
2024-01-05T07:15:53.202Z,42.90
2024-01-05T07:20:54.960Z,40.66
2024-01-05T07:26:01.323Z,42.25
2024-01-05T07:31:06.873Z,42.25
2024-01-05T07:36:09.297Z,41.47
2024-01-05T07:41:19.313Z,40.77
2024-01-05T07:46:21.113Z,44.33
2024-01-05T07:51:23.545Z,43.04
2024-01-05T07:56:25.268Z,42.76
2024-01-05T08:01:27.109Z,44.89
2024-01-05T08:06:28.879Z,46.08
2024-01-05T08:11:30.694Z,47.97
2024-01-05T08:16:32.394Z,46.79
2024-01-05T08:21:34.168Z,49.50
2024-01-05T08:26:35.973Z,49.61
2024-01-05T08:31:37.602Z,48.32
2024-01-05T08:36:39.321Z,47.68
2024-01-05T08:41:43.579Z,49.95
2024-01-05T08:46:45.424Z,47.30
2024-01-05T08:51:47.195Z,50.88
2024-01-05T08:56:48.878Z,47.58
2024-01-05T09:01:50.596Z,48.32
2024-01-05T09:06:52.630Z,48.41
2024-01-05T09:11:54.322Z,48.78
2024-01-05T09:16:56.868Z,47.93
2024-01-05T09:22:00.661Z,47.63
2024-01-05T09:27:03.670Z,49.24
2024-01-05T09:32:05.847Z,46.72
2024-01-05T09:37:07.487Z,48.81
2024-01-05T09:42:10.089Z,46.06
2024-01-05T09:47:12.329Z,45.61
2024-01-05T09:52:15.079Z,46.14
2024-01-05T09:57:19.103Z,45.81
2024-01-05T10:02:52.193Z,45.24
2024-01-05T10:07:53.963Z,44.22
2024-01-05T10:13:06.220Z,44.41
2024-01-05T10:18:23.160Z,44.08
2024-01-05T10:23:27.163Z,48.36
2024-01-05T10:28:38.975Z,47.60
2024-01-05T10:33:54.789Z,44.99
2024-01-05T10:38:58.155Z,46.14
2024-01-05T10:43:59.998Z,44.90
2024-01-05T10:49:01.843Z,44.90
2024-01-05T10:54:03.956Z,45.13
2024-01-05T10:59:05.597Z,42.34
2024-01-05T11:06:13.672Z,49.77
2024-01-05T11:11:34.975Z,49.77
2024-01-05T11:16:45.544Z,48.25
2024-01-05T11:21:55.783Z,48.07
2024-01-05T11:26:57.478Z,47.26
2024-01-05T11:31:59.127Z,47.72
2024-01-05T11:37:02.067Z,48.80
2024-01-05T11:42:04.389Z,47.70
2024-01-05T11:47:06.178Z,47.08
2024-01-05T11:52:09.025Z,47.66
2024-01-05T11:57:10.650Z,47.42
2024-01-05T12:02:18.634Z,46.57
2024-01-05T12:07:21.964Z,46.05
2024-01-05T12:12:24.599Z,46.61
2024-01-05T12:17:26.264Z,47.86
2024-01-05T12:22:27.957Z,47.34
2024-01-05T12:27:40.117Z,44.98
2024-01-05T12:32:42.505Z,45.69
2024-01-05T12:37:52.316Z,47.06
2024-01-05T12:42:54.728Z,44.92
2024-01-05T12:47:56.379Z,46.17
2024-01-05T12:52:57.978Z,44.96
2024-01-05T12:58:06.556Z,44.12
2024-01-05T13:03:17.522Z,43.40
2024-01-05T13:08:19.179Z,43.60
2024-01-05T13:13:20.870Z,43.96
2024-01-05T13:18:22.523Z,45.64
2024-01-05T13:23:27.831Z,43.58
2024-01-05T13:28:30.225Z,44.80
2024-01-05T13:33:33.020Z,44.18
2024-01-05T13:38:34.778Z,45.29
2024-01-05T13:43:36.649Z,43.60
2024-01-05T13:48:38.577Z,44.71
2024-01-05T13:53:40.246Z,44.68
2024-01-05T13:58:41.895Z,43.03
2024-01-05T14:03:43.996Z,43.35
2024-01-05T14:08:45.596Z,45.41
2024-01-05T14:13:47.146Z,44.87
2024-01-05T14:18:51.395Z,43.70
2024-01-05T14:23:53.496Z,43.52
2024-01-05T14:28:55.797Z,42.99
2024-01-05T14:33:58.839Z,44.48
2024-01-05T14:39:00.926Z,44.16
2024-01-05T14:44:02.598Z,44.36
2024-01-05T14:49:06.354Z,42.31
2024-01-05T14:54:08.188Z,42.16
2024-01-05T14:59:09.787Z,44.89
2024-01-05T15:04:11.499Z,42.76
2024-01-05T15:09:13.511Z,42.97
2024-01-05T15:14:15.200Z,43.96
2024-01-05T15:19:17.806Z,43.00
2024-01-05T15:24:19.552Z,43.66
2024-01-05T15:29:22.173Z,45.76
2024-01-05T15:34:23.868Z,43.72
2024-01-05T15:39:25.558Z,44.93
2024-01-05T15:44:27.290Z,46.37
2024-01-05T15:49:29.007Z,47.99
2024-01-05T15:54:30.888Z,46.57
2024-01-05T15:59:34.068Z,46.73
2024-01-05T16:04:36.298Z,47.75
2024-01-05T16:09:38.112Z,44.29
2024-01-05T16:14:48.244Z,46.27
2024-01-05T16:19:50.056Z,46.10
2024-01-05T16:24:51.686Z,47.12
2024-01-05T16:29:53.341Z,46.68
2024-01-05T16:34:55.076Z,46.57
2024-01-05T16:39:56.755Z,45.60
2024-01-05T16:44:58.410Z,45.23
2024-01-05T16:50:00.302Z,43.48
2024-01-05T16:55:02.402Z,44.10
2024-01-05T17:00:06.061Z,44.66
2024-01-05T17:05:07.969Z,45.68
2024-01-05T17:10:09.678Z,45.10
2024-01-05T17:15:11.483Z,45.30
2024-01-05T17:20:21.814Z,44.91
2024-01-05T17:25:27.090Z,45.16
2024-01-05T17:30:28.771Z,44.00
2024-01-05T17:35:30.430Z,43.60
2024-01-05T17:40:32.014Z,43.92
2024-01-05T17:45:33.603Z,44.21
2024-01-05T17:50:35.286Z,45.47
2024-01-05T17:55:36.923Z,47.02
2024-01-05T18:00:38.718Z,45.89
2024-01-05T18:05:40.359Z,46.51
2024-01-05T18:10:42.236Z,46.79
2024-01-05T18:15:43.893Z,47.50
2024-01-05T18:20:45.528Z,45.59
2024-01-05T18:25:47.340Z,43.77
2024-01-05T18:30:50.031Z,44.34
2024-01-05T18:35:51.842Z,45.67
2024-01-05T18:40:53.522Z,46.13
2024-01-05T18:45:55.235Z,45.90
2024-01-05T18:50:56.912Z,46.18
2024-01-05T18:55:58.827Z,45.08
2024-01-05T19:01:00.573Z,45.43
2024-01-05T19:06:02.380Z,43.53
2024-01-05T19:11:04.976Z,43.06
2024-01-05T19:16:09.834Z,44.23
2024-01-05T19:21:11.532Z,44.95
2024-01-05T19:26:22.748Z,44.38
2024-01-05T19:31:24.517Z,44.69
2024-01-05T19:36:26.170Z,43.67
2024-01-05T19:41:27.740Z,44.06
2024-01-05T19:46:30.199Z,44.59
2024-01-05T19:51:32.111Z,44.98
2024-01-05T19:56:33.733Z,42.24
2024-01-05T20:01:37.298Z,41.92
2024-01-05T20:06:39.735Z,42.59
2024-01-05T20:11:41.970Z,43.71
2024-01-05T20:16:44.364Z,43.58
2024-01-05T20:21:47.142Z,43.58
2024-01-05T20:26:51.940Z,44.61
2024-01-05T20:31:55.301Z,43.86
2024-01-05T20:36:57.137Z,44.02
2024-01-05T20:41:58.756Z,44.58
2024-01-05T20:47:00.370Z,44.65
2024-01-05T20:52:01.967Z,45.08
2024-01-05T20:57:03.837Z,45.68
2024-01-05T21:02:05.761Z,44.96
2024-01-05T21:07:07.768Z,44.03
2024-01-05T21:12:10.433Z,44.28
2024-01-05T21:17:12.149Z,45.77
2024-01-05T21:22:13.778Z,46.72
2024-01-05T21:27:16.018Z,46.66
2024-01-05T21:32:20.679Z,45.76
2024-01-05T21:37:23.026Z,44.90
2024-01-05T21:42:24.730Z,45.45
2024-01-05T21:47:28.083Z,46.93
2024-01-05T21:52:29.765Z,46.34
2024-01-05T21:57:32.863Z,46.26
2024-01-05T22:02:35.284Z,45.37
2024-01-05T22:07:38.190Z,46.59
2024-01-05T22:12:39.883Z,46.61
2024-01-05T22:17:41.703Z,46.26
2024-01-05T22:22:43.409Z,45.64
2024-01-05T22:27:46.285Z,44.90
2024-01-05T22:32:47.962Z,45.23
2024-01-05T22:37:49.664Z,45.63
2024-01-05T22:42:51.439Z,45.22
2024-01-05T22:47:53.408Z,44.70
2024-01-05T22:52:55.124Z,44.77
2024-01-05T22:57:56.728Z,43.76
2024-01-05T23:02:58.426Z,44.75
2024-01-05T23:08:00.169Z,43.92
2024-01-05T23:13:02.953Z,45.55
2024-01-05T23:18:05.950Z,44.65
2024-01-05T23:23:07.951Z,43.83
2024-01-05T23:28:09.644Z,44.70
2024-01-05T23:33:11.834Z,44.84
2024-01-05T23:38:13.706Z,45.69
2024-01-05T23:43:15.385Z,45.19
2024-01-05T23:48:17.186Z,45.05
2024-01-05T23:53:19.152Z,46.04
2024-01-05T23:58:20.826Z,46.05
